Dades meteomassalio
Diari Summary for Noviembre 10, 2017 Units:  English    Metric   Both
« Previous Day
Next Day »
Diari Semanal Mensual Anual Personalitzat
  Maxima: Minima: Mijana:
Temperatura: TemperatureC °F 2.8 °F 10.4 °F
Rosada: DewpointC °F -1.8 °F 4.5 °F
Humitat: Humidity % 51 % 67 %
Velocitat del vent: WindSpeedKMH mph 8.0 mph 22.3 mph
Racha vent: WindSpeedGustKMH mph - -
Vent:- - NW
Pressio: PressurehPa in 1027.7 in -
Pluja: 0.0 in    
Historical Graphs
 
 
Tabular Data for Noviembre 10, 2017
Time Temperature Dew Point Pressure Wind Wind Speed Wind Gust Humidity Rainfall Rate (Hourly) solar Conditions
TemperatureC °F DewpointC °F PressurehPa in Calm     Humidity % HourlyPrecipMM in SolarRadiationWatts/m^2 W/m2 Conditions
00:04 7.2 °F 3.3 °F 1029.0 in NW 20.9 mph 20.9 mph 76 % 0.0 in 0.0 W/m2 CLR
00:09 7.2 °F 3.3 °F 1029.0 in WNW 22.2 mph 22.2 mph 76 % 0.0 in 0.0 W/m2 CLR
00:14 7.2 °F 3.3 °F 1029.3 in NW 22.5 mph 22.5 mph 76 % 0.0 in 0.0 W/m2 CLR
00:19 7.2 °F 3.3 °F 1029.3 in WNW 22.5 mph 22.5 mph 76 % 0.0 in 0.0 W/m2 CLR
00:24 7.2 °F 3.1 °F 1029.3 in WNW 25.9 mph 25.9 mph 75 % 0.0 in 0.0 W/m2 CLR
00:30 7.2 °F 3.1 °F 1029.7 in WNW 18.5 mph 18.5 mph 75 % 0.0 in 0.0 W/m2 CLR
00:35 6.7 °F 2.7 °F 1029.7 in WNW 18.5 mph 18.5 mph 76 % 0.0 in 0.0 W/m2 CLR
00:40 6.7 °F 2.7 °F 1029.7 in WSW 18.5 mph 18.5 mph 76 % 0.0 in 0.0 W/m2 CLR
00:45 6.7 °F 2.7 °F 1029.7 in West 18.5 mph 18.5 mph 76 % 0.0 in 0.0 W/m2 CLR
00:50 6.7 °F 2.7 °F 1029.3 in NW 11.3 mph 11.4 mph 76 % 0.0 in 0.0 W/m2 CLR
00:55 6.7 °F 2.7 °F 1029.3 in WSW 9.3 mph 9.3 mph 76 % 0.0 in 0.0 W/m2 CLR
01:00 6.7 °F 2.7 °F 1029.3 in West 12.9 mph 12.9 mph 76 % 0.0 in 0.0 W/m2 CLR
01:05 6.7 °F 2.9 °F 1029.3 in WNW 18.5 mph 18.5 mph 77 % 0.0 in 0.0 W/m2 CLR
01:10 6.7 °F 2.7 °F 1029.3 in West 18.5 mph 18.5 mph 76 % 0.0 in 0.0 W/m2 CLR
01:15 6.7 °F 2.7 °F 1029.3 in West 11.1 mph 11.1 mph 76 % 0.0 in 0.0 W/m2 CLR
01:20 6.7 °F 2.7 °F 1029.3 in West 9.7 mph 9.7 mph 76 % 0.0 in 0.0 W/m2 CLR
01:25 6.1 °F 2.2 °F 1029.3 in WNW 14.8 mph 14.8 mph 76 % 0.0 in 0.0 W/m2 CLR
01:30 6.7 °F 2.7 °F 1029.3 in West 16.1 mph 16.1 mph 76 % 0.0 in 0.0 W/m2 CLR
01:35 6.7 °F 2.7 °F 1029.3 in West 18.5 mph 18.5 mph 76 % 0.0 in 0.0 W/m2 CLR
01:40 6.1 °F 2.2 °F 1029.3 in West 16.7 mph 16.7 mph 76 % 0.0 in 0.0 W/m2 CLR
01:45 6.1 °F 2.2 °F 1029.3 in WNW 12.9 mph 12.9 mph 76 % 0.0 in 0.0 W/m2 CLR
01:50 6.1 °F 2.2 °F 1029.3 in West 11.1 mph 11.1 mph 76 % 0.0 in 0.0 W/m2 CLR
01:55 6.1 °F 2.2 °F 1029.3 in West 8.0 mph 8.0 mph 76 % 0.0 in 0.0 W/m2 CLR
02:00 6.1 °F 2.2 °F 1029.3 in West 14.8 mph 14.8 mph 76 % 0.0 in 0.0 W/m2 CLR
02:06 6.1 °F 2.2 °F 1029.3 in WNW 16.7 mph 16.7 mph 76 % 0.0 in 0.0 W/m2 CLR
02:11 6.1 °F 2.2 °F 1029.3 in West 14.5 mph 14.5 mph 76 % 0.0 in 0.0 W/m2 CLR
02:16 6.7 °F 2.7 °F 1029.3 in WNW 16.7 mph 16.7 mph 76 % 0.0 in 0.0 W/m2 CLR
02:21 6.7 °F 2.7 °F 1029.0 in WNW 18.5 mph 18.5 mph 76 % 0.0 in 0.0 W/m2 CLR
02:26 6.1 °F 2.2 °F 1029.0 in West 24.1 mph 24.1 mph 76 % 0.0 in 0.0 W/m2 CLR
02:31 6.1 °F 2.0 °F 1029.0 in WNW 22.2 mph 22.2 mph 75 % 0.0 in 0.0 W/m2 CLR
02:36 6.1 °F 1.8 °F 1029.0 in WNW 22.5 mph 22.5 mph 74 % 0.0 in 0.0 W/m2 CLR
02:41 6.7 °F 2.3 °F 1029.0 in West 18.5 mph 18.5 mph 74 % 0.0 in 0.0 W/m2 CLR
02:46 6.7 °F 2.3 °F 1029.0 in WNW 24.1 mph 24.1 mph 74 % 0.0 in 0.0 W/m2 CLR
02:51 6.7 °F 2.3 °F 1029.0 in NW 25.9 mph 25.9 mph 74 % 0.0 in 0.0 W/m2 CLR
02:56 6.7 °F 2.3 °F 1029.0 in WNW 25.9 mph 25.9 mph 74 % 0.0 in 0.0 W/m2 CLR
03:01 6.7 °F 2.2 °F 1029.0 in WNW 24.1 mph 24.1 mph 73 % 0.0 in 0.0 W/m2 CLR
03:06 6.7 °F 2.3 °F 1029.0 in WNW 18.5 mph 18.5 mph 74 % 0.0 in 0.0 W/m2 CLR
03:11 6.7 °F 2.3 °F 1029.0 in WNW 22.2 mph 22.2 mph 74 % 0.0 in 0.0 W/m2 CLR
03:16 6.7 °F 2.3 °F 1029.0 in WNW 27.8 mph 27.8 mph 74 % 0.0 in 0.0 W/m2 CLR
03:21 6.1 °F 1.8 °F 1029.0 in NW 29.6 mph 29.6 mph 74 % 0.0 in 0.0 W/m2 CLR
03:26 6.7 °F 2.2 °F 1029.0 in NW 25.9 mph 25.9 mph 73 % 0.0 in 0.0 W/m2 CLR
03:31 6.7 °F 2.2 °F 1029.0 in WNW 22.2 mph 22.2 mph 73 % 0.0 in 0.0 W/m2 CLR
03:36 6.7 °F 2.2 °F 1029.0 in WNW 22.2 mph 22.2 mph 73 % 0.0 in 0.0 W/m2 CLR
03:41 6.7 °F 2.2 °F 1029.0 in WNW 18.5 mph 18.5 mph 73 % 0.0 in 0.0 W/m2 CLR
03:46 6.7 °F 2.2 °F 1029.0 in WNW 27.8 mph 27.8 mph 73 % 0.0 in 0.0 W/m2 CLR
03:51 6.7 °F 2.2 °F 1029.0 in NW 22.2 mph 22.2 mph 73 % 0.0 in 0.0 W/m2 CLR
03:56 6.7 °F 2.2 °F 1029.0 in NW 29.6 mph 29.6 mph 73 % 0.0 in 0.0 W/m2 CLR
04:01 6.7 °F 2.2 °F 1029.0 in NW 27.8 mph 27.8 mph 73 % 0.0 in 0.0 W/m2 CLR
04:06 6.7 °F 2.2 °F 1029.0 in West 24.1 mph 24.1 mph 73 % 0.0 in 0.0 W/m2 CLR
04:11 6.7 °F 2.2 °F 1029.0 in NW 24.1 mph 24.1 mph 73 % 0.0 in 0.0 W/m2 CLR
04:16 6.7 °F 2.2 °F 1029.0 in WNW 24.1 mph 24.1 mph 73 % 0.0 in 0.0 W/m2 CLR
04:21 6.7 °F 2.2 °F 1029.0 in West 16.7 mph 16.7 mph 73 % 0.0 in 0.0 W/m2 CLR
04:26 6.7 °F 2.2 °F 1029.0 in WNW 16.7 mph 16.7 mph 73 % 0.0 in 0.0 W/m2 CLR
04:31 6.7 °F 2.2 °F 1029.0 in West 18.5 mph 18.5 mph 73 % 0.0 in 0.0 W/m2 CLR
04:36 6.7 °F 2.2 °F 1029.0 in West 20.4 mph 20.4 mph 73 % 0.0 in 0.0 W/m2 CLR
04:41 6.1 °F 1.6 °F 1029.0 in West 18.5 mph 18.5 mph 73 % 0.0 in 0.0 W/m2 CLR
04:46 6.7 °F 2.2 °F 1029.0 in West 18.5 mph 18.5 mph 73 % 0.0 in 0.0 W/m2 CLR
04:51 6.1 °F 1.6 °F 1029.0 in West 18.5 mph 18.5 mph 73 % 0.0 in 0.0 W/m2 CLR
04:56 6.1 °F 1.6 °F 1029.0 in WNW 18.5 mph 18.5 mph 73 % 0.0 in 0.0 W/m2 CLR
05:01 6.1 °F 1.6 °F 1029.0 in West 9.7 mph 9.7 mph 73 % 0.0 in 0.0 W/m2 CLR
05:06 6.1 °F 1.8 °F 1029.0 in WNW 18.5 mph 18.5 mph 74 % 0.0 in 0.0 W/m2 CLR
05:11 6.1 °F 1.8 °F 1029.0 in West 18.5 mph 18.5 mph 74 % 0.0 in 0.0 W/m2 CLR
05:16 5.6 °F 1.3 °F 1029.0 in West 18.5 mph 18.5 mph 74 % 0.0 in 0.0 W/m2 CLR
05:21 5.6 °F 1.1 °F 1029.0 in West 14.8 mph 14.8 mph 73 % 0.0 in 0.0 W/m2 CLR
05:26 5.6 °F 1.3 °F 1029.0 in West 16.7 mph 16.7 mph 74 % 0.0 in 0.0 W/m2 CLR
05:27 5.6 °F 1.3 °F 1029.0 in West 16.7 mph 16.7 mph 74 % 0.0 in 0.0 W/m2 CLR
05:32 6.1 °F 1.8 °F 1029.0 in West 14.8 mph 14.8 mph 74 % 0.0 in 0.0 W/m2 CLR
05:37 6.1 °F 2.0 °F 1029.0 in West 18.5 mph 18.5 mph 75 % 0.0 in 0.0 W/m2 CLR
05:42 6.1 °F 2.0 °F 1029.0 in West 14.8 mph 14.8 mph 75 % 0.0 in 0.0 W/m2 CLR
05:47 6.1 °F 2.0 °F 1029.3 in WNW 18.5 mph 18.5 mph 75 % 0.0 in 0.0 W/m2 CLR
05:52 6.1 °F 2.0 °F 1029.3 in West 20.4 mph 20.4 mph 75 % 0.0 in 0.0 W/m2 CLR
05:57 6.1 °F 2.0 °F 1029.3 in West 16.7 mph 16.7 mph 75 % 0.0 in 0.0 W/m2 CLR
06:02 6.1 °F 2.2 °F 1029.3 in West 16.7 mph 16.7 mph 76 % 0.0 in 0.0 W/m2 CLR
06:07 6.1 °F 2.2 °F 1029.0 in WNW 16.7 mph 16.7 mph 76 % 0.0 in 0.0 W/m2 CLR
06:12 5.6 °F 1.7 °F 1029.0 in West 16.7 mph 16.7 mph 76 % 0.0 in 0.0 W/m2 CLR
06:17 5.6 °F 1.7 °F 1029.0 in WNW 18.5 mph 18.5 mph 76 % 0.0 in 0.0 W/m2 CLR
06:22 5.6 °F 1.3 °F 1029.0 in WNW 20.4 mph 20.4 mph 74 % 0.0 in 0.0 W/m2 CLR
06:27 5.6 °F 1.3 °F 1029.0 in West 20.4 mph 20.4 mph 74 % 0.0 in 0.0 W/m2 CLR
06:32 5.6 °F 1.1 °F 1028.7 in WNW 18.5 mph 18.5 mph 73 % 0.0 in 0.0 W/m2 CLR
06:37 6.1 °F 1.6 °F 1029.0 in West 18.5 mph 18.8 mph 73 % 0.0 in 0.0 W/m2 CLR
06:42 5.6 °F 1.1 °F 1028.7 in NW 20.4 mph 20.4 mph 73 % 0.0 in 0.0 W/m2 CLR
06:47 5.6 °F 1.1 °F 1028.7 in WNW 19.3 mph 19.3 mph 73 % 0.0 in 0.0 W/m2 CLR
06:52 5.0 °F 0.6 °F 1028.7 in West 18.5 mph 18.5 mph 73 % 0.0 in 0.0 W/m2 CLR
06:57 5.6 °F 1.1 °F 1028.7 in WNW 16.7 mph 16.7 mph 73 % 0.0 in 0.0 W/m2 CLR
07:02 5.6 °F 1.1 °F 1028.7 in WNW 16.7 mph 16.7 mph 73 % 0.0 in 0.0 W/m2 CLR
07:07 5.6 °F 1.1 °F 1028.7 in West 19.3 mph 19.3 mph 73 % 0.0 in 0.0 W/m2 CLR
07:12 5.6 °F 1.1 °F 1028.7 in WNW 18.5 mph 18.5 mph 73 % 0.0 in 0.0 W/m2 CLR
07:17 5.6 °F 1.1 °F 1029.0 in WNW 18.5 mph 18.5 mph 73 % 0.0 in 0.0 W/m2 CLR
07:22 5.0 °F 0.6 °F 1029.0 in WNW 18.5 mph 18.5 mph 73 % 0.0 in 0.0 W/m2 CLR
07:27 4.4 °F 0.0 °F 1029.0 in West 18.5 mph 18.5 mph 73 % 0.0 in 0.0 W/m2 CLR
07:32 4.4 °F 0.0 °F 1029.0 in West 16.7 mph 16.7 mph 73 % 0.0 in 0.0 W/m2 OVC
07:37 4.4 °F 0.0 °F 1029.0 in West 13.0 mph 13.0 mph 73 % 0.0 in 0.0 W/m2 OVC
07:42 3.9 °F -0.5 °F 1029.3 in West 13.0 mph 13.0 mph 73 % 0.0 in 5.0 W/m2 OVC
07:47 3.9 °F -0.5 °F 1029.3 in West 14.8 mph 14.8 mph 73 % 0.0 in 7.0 W/m2 OVC
07:52 3.9 °F -0.5 °F 1029.3 in West 13.0 mph 13.0 mph 73 % 0.0 in 9.0 W/m2 OVC
07:57 3.3 °F -1.1 °F 1029.3 in WNW 11.1 mph 11.1 mph 73 % 0.0 in 12.0 W/m2 OVC
08:02 3.3 °F -1.1 °F 1029.3 in West 14.8 mph 14.8 mph 73 % 0.0 in 14.0 W/m2 OVC
08:07 2.8 °F -1.6 °F 1029.3 in WNW 18.5 mph 18.5 mph 73 % 0.0 in 16.0 W/m2 OVC
08:12 2.8 °F -1.8 °F 1029.3 in West 11.1 mph 11.1 mph 72 % 0.0 in 21.0 W/m2 OVC
08:17 2.8 °F -1.8 °F 1029.3 in NW 9.3 mph 9.3 mph 72 % 0.0 in 28.0 W/m2 OVC
08:22 2.8 °F -1.8 °F 1029.3 in NW 16.7 mph 16.7 mph 72 % 0.0 in 37.0 W/m2 OVC
08:27 3.3 °F -1.4 °F 1029.3 in WNW 18.5 mph 18.5 mph 71 % 0.0 in 46.0 W/m2 OVC
08:32 4.4 °F -0.6 °F 1029.3 in WNW 18.5 mph 18.5 mph 70 % 0.0 in 49.0 W/m2 OVC
08:37 5.6 °F 0.5 °F 1029.7 in WNW 18.5 mph 18.5 mph 70 % 0.0 in 77.0 W/m2 OVC
08:42 6.1 °F 0.8 °F 1029.7 in West 18.5 mph 18.5 mph 69 % 0.0 in 93.0 W/m2 OVC
08:47 6.7 °F 1.6 °F 1030.0 in WNW 18.5 mph 18.5 mph 70 % 0.0 in 95.0 W/m2 BKN
08:52 6.7 °F 1.4 °F 1030.0 in WNW 18.5 mph 18.5 mph 69 % 0.0 in 123.0 W/m2 CLR
08:57 6.7 °F 1.4 °F 1030.0 in WNW 18.5 mph 18.5 mph 69 % 0.0 in 137.0 W/m2 CLR
09:02 7.2 °F 1.9 °F 1030.0 in WNW 18.5 mph 18.5 mph 69 % 0.0 in 156.0 W/m2 CLR
09:07 7.8 °F 2.4 °F 1030.0 in West 17.7 mph 17.7 mph 69 % 0.0 in 171.0 W/m2 CLR
09:12 7.8 °F 2.4 °F 1030.0 in WNW 18.5 mph 18.5 mph 69 % 0.0 in 186.0 W/m2 CLR
09:17 7.8 °F 2.2 °F 1030.0 in NW 14.8 mph 14.8 mph 68 % 0.0 in 149.0 W/m2 CLR
09:22 8.3 °F 2.8 °F 1030.0 in NW 22.5 mph 22.5 mph 68 % 0.0 in 206.0 W/m2 CLR
09:27 8.3 °F 2.8 °F 1030.0 in NW 22.2 mph 22.2 mph 68 % 0.0 in 234.0 W/m2 CLR
09:32 8.3 °F 2.8 °F 1030.0 in WNW 20.4 mph 20.4 mph 68 % 0.0 in 250.0 W/m2 CLR
09:37 8.9 °F 3.3 °F 1030.0 in NW 18.5 mph 18.5 mph 68 % 0.0 in 262.0 W/m2 CLR
09:42 8.9 °F 3.3 °F 1030.0 in NW 22.2 mph 22.2 mph 68 % 0.0 in 274.0 W/m2 CLR
09:47 8.9 °F 3.1 °F 1030.4 in NW 18.5 mph 18.5 mph 67 % 0.0 in 288.0 W/m2 CLR
09:52 8.9 °F 3.1 °F 1030.4 in WNW 22.2 mph 22.2 mph 67 % 0.0 in 299.0 W/m2 CLR
09:57 9.4 °F 3.8 °F 1030.4 in NNW 16.7 mph 16.7 mph 68 % 0.0 in 311.0 W/m2 CLR
10:02 9.4 °F 3.6 °F 1030.4 in NW 25.9 mph 25.9 mph 67 % 0.0 in 323.0 W/m2 CLR
10:07 9.4 °F 3.6 °F 1030.4 in NNW 18.5 mph 18.5 mph 67 % 0.0 in 336.0 W/m2 CLR
10:12 9.4 °F 3.6 °F 1030.4 in NNW 20.4 mph 20.4 mph 67 % 0.0 in 346.0 W/m2 CLR
10:17 10.0 °F 3.7 °F 1030.4 in NW 25.9 mph 25.9 mph 65 % 0.0 in 357.0 W/m2 CLR
10:22 10.0 °F 3.7 °F 1030.4 in NNW 22.2 mph 22.2 mph 65 % 0.0 in 367.0 W/m2 CLR
10:27 10.0 °F 3.5 °F 1030.7 in WNW 18.5 mph 18.5 mph 64 % 0.0 in 378.0 W/m2 CLR
10:32 10.0 °F 3.5 °F 1030.4 in NW 18.5 mph 18.5 mph 64 % 0.0 in 388.0 W/m2 CLR
10:37 10.0 °F 3.5 °F 1030.7 in NW 20.4 mph 20.4 mph 64 % 0.0 in 397.0 W/m2 CLR
10:42 10.6 °F 3.8 °F 1030.7 in NNW 18.5 mph 18.5 mph 63 % 0.0 in 406.0 W/m2 CLR
10:47 10.6 °F 3.8 °F 1030.7 in NW 18.5 mph 18.5 mph 63 % 0.0 in 415.0 W/m2 CLR
10:52 10.6 °F 3.3 °F 1030.7 in NW 24.1 mph 24.1 mph 61 % 0.0 in 425.0 W/m2 CLR
10:57 10.6 °F 3.1 °F 1030.7 in NNW 24.1 mph 24.1 mph 60 % 0.0 in 436.0 W/m2 CLR
11:02 11.1 °F 3.6 °F 1030.7 in NW 18.5 mph 18.5 mph 60 % 0.0 in 446.0 W/m2 CLR
11:07 11.1 °F 3.6 °F 1030.7 in North 25.9 mph 25.9 mph 60 % 0.0 in 367.0 W/m2 CLR
11:12 11.1 °F 3.9 °F 1030.7 in NW 16.7 mph 16.7 mph 61 % 0.0 in 448.0 W/m2 CLR
11:17 11.1 °F 3.9 °F 1030.7 in North 24.1 mph 24.1 mph 61 % 0.0 in 464.0 W/m2 CLR
11:22 11.7 °F 4.4 °F 1030.7 in NW 25.9 mph 25.9 mph 61 % 0.0 in 471.0 W/m2 CLR
11:27 11.7 °F 4.2 °F 1030.7 in NW 27.8 mph 27.8 mph 60 % 0.0 in 482.0 W/m2 CLR
11:33 12.2 °F 4.7 °F 1030.4 in WNW 18.5 mph 18.5 mph 60 % 0.0 in 457.0 W/m2 CLR
11:38 12.2 °F 4.4 °F 1030.4 in North 18.5 mph 18.5 mph 59 % 0.0 in 475.0 W/m2 CLR
11:43 12.2 °F 3.9 °F 1030.4 in NW 18.5 mph 18.5 mph 57 % 0.0 in 473.0 W/m2 CLR
11:48 12.2 °F 3.9 °F 1030.4 in NNW 24.1 mph 24.1 mph 57 % 0.0 in 485.0 W/m2 CLR
11:53 12.2 °F 3.9 °F 1030.4 in NW 18.5 mph 18.5 mph 57 % 0.0 in 487.0 W/m2 CLR
11:58 12.8 °F 4.4 °F 1030.0 in NW 18.5 mph 18.5 mph 57 % 0.0 in 508.0 W/m2 CLR
12:03 12.8 °F 3.9 °F 1030.0 in NW 27.8 mph 27.8 mph 55 % 0.0 in 510.0 W/m2 CLR
12:08 12.8 °F 4.2 °F 1030.0 in NW 22.2 mph 22.2 mph 56 % 0.0 in 513.0 W/m2 CLR
12:13 12.8 °F 4.2 °F 1030.0 in NW 20.4 mph 20.4 mph 56 % 0.0 in 515.0 W/m2 CLR
12:18 12.8 °F 4.2 °F 1029.7 in NNW 22.5 mph 22.5 mph 56 % 0.0 in 517.0 W/m2 CLR
12:23 13.3 °F 4.7 °F 1029.7 in WNW 14.8 mph 14.8 mph 56 % 0.0 in 519.0 W/m2 CLR
12:28 13.3 °F 4.5 °F 1029.7 in NW 19.3 mph 19.3 mph 55 % 0.0 in 520.0 W/m2 CLR
12:33 13.3 °F 4.7 °F 1029.7 in NNW 20.4 mph 20.4 mph 56 % 0.0 in 522.0 W/m2 CLR
12:38 13.9 °F 5.2 °F 1029.7 in North 22.2 mph 22.2 mph 56 % 0.0 in 524.0 W/m2 CLR
12:43 14.4 °F 5.2 °F 1029.7 in North 24.1 mph 24.1 mph 54 % 0.0 in 524.0 W/m2 CLR
12:48 14.4 °F 5.2 °F 1029.3 in NNW 25.9 mph 25.9 mph 54 % 0.0 in 526.0 W/m2 CLR
12:53 14.4 °F 5.0 °F 1029.3 in NNW 27.8 mph 27.8 mph 53 % 0.0 in 527.0 W/m2 CLR
12:58 14.4 °F 5.0 °F 1029.3 in NW 25.9 mph 25.9 mph 53 % 0.0 in 534.0 W/m2 CLR
13:03 13.9 °F 4.4 °F 1029.3 in NW 22.2 mph 22.2 mph 53 % 0.0 in 541.0 W/m2 CLR
13:08 14.4 °F 5.0 °F 1029.0 in NW 18.5 mph 18.5 mph 53 % 0.0 in 552.0 W/m2 CLR
13:13 15.0 °F 5.8 °F 1029.0 in NW 24.1 mph 24.1 mph 54 % 0.0 in 566.0 W/m2 CLR
13:18 15.0 °F 5.2 °F 1029.0 in North 22.2 mph 22.2 mph 52 % 0.0 in 568.0 W/m2 CLR
13:23 15.0 °F 5.2 °F 1028.7 in NNW 22.2 mph 22.2 mph 52 % 0.0 in 598.0 W/m2 CLR
13:28 15.0 °F 5.2 °F 1028.7 in North 17.7 mph 17.7 mph 52 % 0.0 in 580.0 W/m2 CLR
13:33 16.1 °F 5.9 °F 1028.7 in NNW 18.5 mph 18.5 mph 51 % 0.0 in 468.0 W/m2 CLR
13:38 15.6 °F 5.4 °F 1028.3 in NNW 18.5 mph 18.5 mph 51 % 0.0 in 316.0 W/m2 CLR
13:43 15.0 °F 5.2 °F 1028.3 in NNW 22.2 mph 22.2 mph 52 % 0.0 in 302.0 W/m2 CLR
13:48 15.6 °F 5.7 °F 1028.3 in NW 22.2 mph 22.2 mph 52 % 0.0 in 383.0 W/m2 CLR
13:53 16.1 °F 6.5 °F 1028.3 in NNW 29.6 mph 29.6 mph 53 % 0.0 in 464.0 W/m2 CLR
13:58 16.1 °F 6.5 °F 1028.3 in North 27.8 mph 27.8 mph 53 % 0.0 in 387.0 W/m2 CLR
14:03 16.1 °F 6.8 °F 1028.0 in North 31.5 mph 31.5 mph 54 % 0.0 in 431.0 W/m2 CLR
14:08 16.1 °F 6.8 °F 1028.0 in NW 22.5 mph 22.5 mph 54 % 0.0 in 318.0 W/m2 CLR
14:13 15.6 °F 6.6 °F 1028.0 in NNW 25.7 mph 25.7 mph 55 % 0.0 in 334.0 W/m2 CLR
14:18 15.6 °F 6.8 °F 1028.0 in North 25.7 mph 25.7 mph 56 % 0.0 in 309.0 W/m2 CLR
14:23 15.6 °F 7.1 °F 1028.0 in North 22.5 mph 22.5 mph 57 % 0.0 in 271.0 W/m2 CLR
14:28 15.6 °F 7.1 °F 1028.0 in NNW 29.6 mph 29.6 mph 57 % 0.0 in 253.0 W/m2 CLR
14:33 15.6 °F 7.3 °F 1028.0 in North 24.1 mph 24.1 mph 58 % 0.0 in 237.0 W/m2 CLR
14:38 15.0 °F 6.8 °F 1028.0 in NNW 25.9 mph 25.9 mph 58 % 0.0 in 309.0 W/m2 CLR
14:43 15.6 °F 7.1 °F 1028.0 in North 22.2 mph 22.2 mph 57 % 0.0 in 302.0 W/m2 CLR
14:48 15.6 °F 7.1 °F 1028.0 in NW 14.8 mph 14.8 mph 57 % 0.0 in 260.0 W/m2 CLR
14:53 15.6 °F 7.1 °F 1028.0 in NNW 29.6 mph 29.6 mph 57 % 0.0 in 269.0 W/m2 CLR
14:58 15.6 °F 7.1 °F 1028.0 in NNW 29.6 mph 29.6 mph 57 % 0.0 in 244.0 W/m2 CLR
15:03 15.6 °F 6.8 °F 1027.7 in North 29.6 mph 29.6 mph 56 % 0.0 in 192.0 W/m2 CLR
15:08 15.6 °F 6.8 °F 1027.7 in NW 24.1 mph 24.1 mph 56 % 0.0 in 218.0 W/m2 CLR
15:13 15.6 °F 6.8 °F 1027.7 in NNW 24.1 mph 24.1 mph 56 % 0.0 in 195.0 W/m2 CLR
15:18 15.6 °F 6.6 °F 1027.7 in NNW 31.5 mph 31.5 mph 55 % 0.0 in 188.0 W/m2 CLR
15:23 15.6 °F 6.8 °F 1027.7 in NW 25.9 mph 25.9 mph 56 % 0.0 in 202.0 W/m2 CLR
15:28 15.6 °F 7.1 °F 1027.7 in NNW 18.5 mph 18.5 mph 57 % 0.0 in 186.0 W/m2 CLR
15:33 15.6 °F 7.1 °F 1027.7 in NW 16.7 mph 16.7 mph 57 % 0.0 in 156.0 W/m2 CLR
15:38 15.6 °F 7.1 °F 1027.7 in North 27.8 mph 27.8 mph 57 % 0.0 in 132.0 W/m2 CLR
15:43 15.0 °F 6.6 °F 1028.0 in NNW 31.5 mph 31.5 mph 57 % 0.0 in 128.0 W/m2 CLR
15:48 15.0 °F 6.6 °F 1028.0 in NNW 24.1 mph 24.1 mph 57 % 0.0 in 125.0 W/m2 CLR
15:53 15.0 °F 6.6 °F 1028.0 in North 37.0 mph 37.0 mph 57 % 0.0 in 113.0 W/m2 CLR
15:58 15.0 °F 6.8 °F 1028.0 in North 27.8 mph 27.8 mph 58 % 0.0 in 109.0 W/m2 CLR
16:03 15.0 °F 6.8 °F 1028.0 in NNW 20.4 mph 20.4 mph 58 % 0.0 in 111.0 W/m2 CLR
16:08 15.0 °F 7.1 °F 1028.0 in NNW 24.1 mph 24.1 mph 59 % 0.0 in 102.0 W/m2 CLR
16:13 15.0 °F 7.1 °F 1028.0 in NW 22.5 mph 22.5 mph 59 % 0.0 in 98.0 W/m2 CLR
16:18 15.0 °F 7.1 °F 1028.0 in North 24.1 mph 24.1 mph 59 % 0.0 in 83.0 W/m2 CLR
16:23 15.0 °F 7.3 °F 1028.0 in NNW 18.5 mph 18.5 mph 60 % 0.0 in 84.0 W/m2 CLR
16:28 14.4 °F 6.8 °F 1028.0 in NNW 18.5 mph 18.5 mph 60 % 0.0 in 171.0 W/m2 CLR
16:33 15.0 °F 7.1 °F 1028.0 in NNW 24.1 mph 24.1 mph 59 % 0.0 in 137.0 W/m2 CLR
16:38 15.0 °F 7.1 °F 1028.0 in NNW 18.5 mph 18.5 mph 59 % 0.0 in 116.0 W/m2 CLR
16:43 15.0 °F 7.1 °F 1028.3 in NNW 19.3 mph 19.3 mph 59 % 0.0 in 105.0 W/m2 CLR
16:48 15.0 °F 7.1 °F 1028.3 in North 27.8 mph 27.8 mph 59 % 0.0 in 98.0 W/m2 CLR
16:49 15.0 °F 7.1 °F 1028.3 in NNW 27.8 mph 27.8 mph 59 % 0.0 in 98.0 W/m2 CLR
16:54 15.0 °F 7.1 °F 1028.3 in North 24.1 mph 24.1 mph 59 % 0.0 in 86.0 W/m2 FEW
16:59 15.0 °F 7.1 °F 1028.3 in North 20.4 mph 20.4 mph 59 % 0.0 in 77.0 W/m2 FEW
17:04 15.0 °F 7.1 °F 1028.3 in NW 20.4 mph 20.4 mph 59 % 0.0 in 76.0 W/m2 FEW
17:09 15.0 °F 7.1 °F 1028.0 in NW 24.1 mph 24.1 mph 59 % 0.0 in 65.0 W/m2 SCT
17:14 15.0 °F 7.3 °F 1028.0 in NW 22.2 mph 22.2 mph 60 % 0.0 in 63.0 W/m2 SCT
17:19 15.0 °F 7.3 °F 1028.0 in NNW 27.8 mph 27.8 mph 60 % 0.0 in 53.0 W/m2 SCT
17:24 15.0 °F 7.3 °F 1028.0 in NW 31.5 mph 31.5 mph 60 % 0.0 in 39.0 W/m2 BKN
17:29 14.4 °F 6.8 °F 1028.0 in NW 18.5 mph 18.5 mph 60 % 0.0 in 26.0 W/m2 BKN
17:34 14.4 °F 6.8 °F 1028.3 in NNW 25.9 mph 25.9 mph 60 % 0.0 in 16.0 W/m2 BKN
17:39 14.4 °F 6.8 °F 1028.0 in NW 16.7 mph 16.7 mph 60 % 0.0 in 7.0 W/m2 BKN
17:44 14.4 °F 6.8 °F 1028.0 in WNW 16.7 mph 16.7 mph 60 % 0.0 in 5.0 W/m2 OVC
17:49 13.9 °F 6.2 °F 1028.0 in NW 24.1 mph 24.1 mph 60 % 0.0 in 0.0 W/m2 OVC
17:54 14.4 °F 7.0 °F 1028.0 in North 24.1 mph 24.1 mph 61 % 0.0 in 0.0 W/m2 OVC
17:59 14.4 °F 7.2 °F 1028.3 in NNW 27.8 mph 27.8 mph 62 % 0.0 in 0.0 W/m2 CLR
18:04 13.9 °F 6.7 °F 1028.0 in NW 25.7 mph 25.7 mph 62 % 0.0 in 0.0 W/m2 CLR
18:09 13.9 °F 6.9 °F 1028.3 in NW 22.2 mph 22.2 mph 63 % 0.0 in 0.0 W/m2 CLR
18:14 13.9 °F 7.2 °F 1028.3 in NNW 32.2 mph 32.2 mph 64 % 0.0 in 0.0 W/m2 CLR
18:19 13.9 °F 7.4 °F 1028.0 in NNW 31.5 mph 31.5 mph 65 % 0.0 in 0.0 W/m2 CLR
18:24 13.9 °F 7.4 °F 1028.3 in NW 24.1 mph 24.1 mph 65 % 0.0 in 0.0 W/m2 CLR
18:29 13.9 °F 7.2 °F 1028.3 in NNW 25.9 mph 25.9 mph 64 % 0.0 in 0.0 W/m2 CLR
18:34 13.9 °F 7.2 °F 1028.3 in NW 22.2 mph 22.2 mph 64 % 0.0 in 0.0 W/m2 CLR
18:39 13.9 °F 7.2 °F 1028.3 in NW 22.5 mph 22.5 mph 64 % 0.0 in 0.0 W/m2 CLR
18:44 13.9 °F 7.2 °F 1028.3 in NW 35.2 mph 35.2 mph 64 % 0.0 in 0.0 W/m2 CLR
18:49 13.9 °F 7.2 °F 1028.3 in NW 31.5 mph 31.5 mph 64 % 0.0 in 0.0 W/m2 CLR
18:54 13.3 °F 6.9 °F 1028.3 in NNW 35.4 mph 35.4 mph 65 % 0.0 in 0.0 W/m2 CLR
18:59 13.3 °F 6.9 °F 1028.3 in NNW 22.5 mph 22.5 mph 65 % 0.0 in 0.0 W/m2 CLR
19:04 13.3 °F 6.9 °F 1028.3 in WNW 24.1 mph 24.1 mph 65 % 0.0 in 0.0 W/m2 CLR
19:09 13.3 °F 7.1 °F 1028.3 in NW 20.4 mph 20.4 mph 66 % 0.0 in 0.0 W/m2 CLR
19:14 13.3 °F 7.1 °F 1028.3 in WNW 25.9 mph 25.9 mph 66 % 0.0 in 0.0 W/m2 CLR
19:19 13.3 °F 7.3 °F 1028.7 in NNW 22.5 mph 22.5 mph 67 % 0.0 in 0.0 W/m2 CLR
19:24 13.3 °F 7.3 °F 1028.3 in NW 27.8 mph 27.8 mph 67 % 0.0 in 0.0 W/m2 CLR
19:29 13.3 °F 7.3 °F 1028.7 in NW 46.3 mph 46.3 mph 67 % 0.0 in 0.0 W/m2 CLR
19:34 13.3 °F 7.3 °F 1028.7 in WNW 27.8 mph 27.8 mph 67 % 0.0 in 0.0 W/m2 CLR
19:39 13.3 °F 7.3 °F 1028.7 in WNW 33.3 mph 33.3 mph 67 % 0.0 in 0.0 W/m2 CLR
19:44 13.3 °F 7.3 °F 1028.7 in NW 20.4 mph 20.4 mph 67 % 0.0 in 0.0 W/m2 CLR
19:49 13.3 °F 7.3 °F 1028.7 in WNW 22.2 mph 22.2 mph 67 % 0.0 in 0.0 W/m2 CLR
19:54 13.3 °F 7.3 °F 1028.7 in WNW 27.8 mph 27.8 mph 67 % 0.0 in 0.0 W/m2 CLR
19:59 13.3 °F 7.3 °F 1029.0 in NNW 24.1 mph 24.1 mph 67 % 0.0 in 0.0 W/m2 CLR
20:04 13.3 °F 7.3 °F 1029.0 in NW 20.4 mph 20.4 mph 67 % 0.0 in 0.0 W/m2 CLR
20:09 13.3 °F 7.3 °F 1029.0 in NW 24.1 mph 24.1 mph 67 % 0.0 in 0.0 W/m2 CLR
20:14 13.3 °F 7.3 °F 1029.0 in NW 14.8 mph 14.8 mph 67 % 0.0 in 0.0 W/m2 CLR
20:19 12.8 °F 7.0 °F 1029.0 in NW 29.6 mph 29.6 mph 68 % 0.0 in 0.0 W/m2 CLR
20:24 13.3 °F 7.6 °F 1029.0 in NNW 27.4 mph 27.4 mph 68 % 0.0 in 0.0 W/m2 CLR
20:29 13.3 °F 7.6 °F 1029.0 in NW 19.3 mph 19.3 mph 68 % 0.0 in 0.0 W/m2 CLR
20:34 13.3 °F 7.6 °F 1029.0 in NW 31.5 mph 31.5 mph 68 % 0.0 in 0.0 W/m2 CLR
20:39 12.8 °F 7.0 °F 1029.0 in NW 20.9 mph 20.9 mph 68 % 0.0 in 0.0 W/m2 CLR
20:44 12.8 °F 7.0 °F 1029.0 in NNW 25.7 mph 25.7 mph 68 % 0.0 in 0.0 W/m2 CLR
20:50 12.8 °F 7.2 °F 1029.0 in WNW 22.2 mph 22.2 mph 69 % 0.0 in 0.0 W/m2 CLR
20:54 12.8 °F 7.2 °F 1029.0 in NW 31.5 mph 31.5 mph 69 % 0.0 in 0.0 W/m2 CLR
21:00 12.8 °F 7.2 °F 1029.0 in NW 31.5 mph 31.5 mph 69 % 0.0 in 0.0 W/m2 CLR
21:05 12.8 °F 7.2 °F 1029.3 in North 20.4 mph 20.4 mph 69 % 0.0 in 0.0 W/m2 CLR
21:10 12.8 °F 7.4 °F 1029.3 in NW 22.2 mph 22.2 mph 70 % 0.0 in 0.0 W/m2 CLR
21:15 12.8 °F 7.4 °F 1029.3 in NW 20.4 mph 20.4 mph 70 % 0.0 in 0.0 W/m2 CLR
21:20 12.8 °F 7.7 °F 1029.3 in NW 35.2 mph 35.2 mph 71 % 0.0 in 0.0 W/m2 CLR
21:25 12.8 °F 7.7 °F 1029.3 in North 22.5 mph 22.5 mph 71 % 0.0 in 0.0 W/m2 CLR
21:30 12.8 °F 7.8 °F 1029.3 in NNW 27.8 mph 27.8 mph 72 % 0.0 in 0.0 W/m2 CLR
21:35 12.8 °F 7.8 °F 1029.3 in NW 31.5 mph 31.5 mph 72 % 0.0 in 0.0 W/m2 CLR
21:40 12.8 °F 7.8 °F 1029.3 in NNW 31.5 mph 31.5 mph 72 % 0.0 in 0.0 W/m2 CLR
21:45 12.8 °F 8.1 °F 1029.3 in North 33.3 mph 33.3 mph 73 % 0.0 in 0.0 W/m2 CLR
21:50 12.8 °F 8.1 °F 1029.3 in North 40.7 mph 40.7 mph 73 % 0.0 in 0.0 W/m2 CLR
21:55 12.8 °F 8.1 °F 1029.3 in NNW 31.5 mph 31.5 mph 73 % 0.0 in 0.0 W/m2 CLR
22:00 12.8 °F 8.3 °F 1029.3 in NNW 33.3 mph 33.3 mph 74 % 0.0 in 0.0 W/m2 CLR
22:05 12.2 °F 7.7 °F 1029.3 in North 29.6 mph 29.6 mph 74 % 0.0 in 0.0 W/m2 CLR
22:10 12.2 °F 7.7 °F 1029.3 in NW 25.9 mph 25.9 mph 74 % 0.0 in 0.0 W/m2 CLR
22:15 12.2 °F 7.9 °F 1029.3 in NW 33.3 mph 33.3 mph 75 % 0.0 in 0.0 W/m2 CLR
22:20 12.2 °F 7.9 °F 1029.3 in North 33.3 mph 33.3 mph 75 % 0.0 in 0.0 W/m2 CLR
22:25 12.2 °F 7.9 °F 1029.3 in NW 27.8 mph 27.8 mph 75 % 0.0 in 0.0 W/m2 CLR
22:30 12.2 °F 7.9 °F 1029.3 in NNW 22.2 mph 22.2 mph 75 % 0.0 in 0.0 W/m2 CLR
22:35 12.2 °F 8.1 °F 1029.3 in NNW 33.3 mph 33.3 mph 76 % 0.0 in 0.0 W/m2 CLR
22:40 12.2 °F 8.1 °F 1029.3 in NNW 37.0 mph 37.0 mph 76 % 0.0 in 0.0 W/m2 CLR
22:45 12.2 °F 8.1 °F 1029.3 in NNW 25.9 mph 25.9 mph 76 % 0.0 in 0.0 W/m2 CLR
22:50 12.2 °F 8.3 °F 1029.3 in NW 31.5 mph 31.5 mph 77 % 0.0 in 0.0 W/m2 CLR
22:55 12.2 °F 8.3 °F 1029.3 in NW 27.8 mph 27.8 mph 77 % 0.0 in 0.0 W/m2 CLR
23:00 12.2 °F 8.3 °F 1029.3 in NW 25.9 mph 25.9 mph 77 % 0.0 in 0.0 W/m2 CLR
23:05 12.2 °F 8.3 °F 1029.3 in North 27.8 mph 27.8 mph 77 % 0.0 in 0.0 W/m2 CLR
23:10 12.2 °F 8.3 °F 1029.3 in NNW 29.6 mph 29.6 mph 77 % 0.0 in 0.0 W/m2 CLR
23:15 12.2 °F 8.3 °F 1029.0 in NW 31.5 mph 31.5 mph 77 % 0.0 in 0.0 W/m2 CLR
23:20 12.8 °F 8.8 °F 1029.0 in NNW 25.9 mph 25.9 mph 77 % 0.0 in 0.0 W/m2 CLR
23:25 12.8 °F 8.8 °F 1029.0 in NNW 31.5 mph 31.5 mph 77 % 0.0 in 0.0 W/m2 CLR
23:30 12.2 °F 8.3 °F 1029.0 in NNW 24.1 mph 24.1 mph 77 % 0.0 in 0.0 W/m2 CLR
23:35 12.2 °F 8.3 °F 1029.0 in NW 35.2 mph 35.2 mph 77 % 0.0 in 0.0 W/m2 CLR
23:40 12.2 °F 8.3 °F 1029.0 in NW 31.5 mph 31.5 mph 77 % 0.0 in 0.0 W/m2 CLR
23:45 12.2 °F 8.3 °F 1029.0 in NW 27.8 mph 27.8 mph 77 % 0.0 in 0.0 W/m2 CLR
23:50 12.2 °F 8.3 °F 1029.0 in NNW 24.1 mph 24.1 mph 77 % 0.0 in 0.0 W/m2 CLR
23:55 12.2 °F 8.3 °F 1029.0 in NNW 24.1 mph 24.1 mph 77 % 0.0 in 0.0 W/m2 CLR
Lo Temps de Massalio
Compliments of Weather Underground - 1.25 mb